sensor_id;sensor_type;location;lat;lon;timestamp;P1;durP1;ratioP1;P2;durP2;ratioP2
10550;SDS011;5324;50.684;3.862;2023-08-21T00:01:14;3.28;;;1.65;;
10550;SDS011;5324;50.684;3.862;2023-08-21T00:03:40;3.50;;;1.80;;
10550;SDS011;5324;50.684;3.862;2023-08-21T00:06:06;6.53;;;1.60;;
10550;SDS011;5324;50.684;3.862;2023-08-21T00:08:32;3.60;;;1.67;;
10550;SDS011;5324;50.684;3.862;2023-08-21T00:10:58;2.20;;;1.23;;
10550;SDS011;5324;50.684;3.862;2023-08-21T00:13:24;4.18;;;1.45;;
10550;SDS011;5324;50.684;3.862;2023-08-21T00:15:50;3.90;;;1.60;;
10550;SDS011;5324;50.684;3.862;2023-08-21T00:18:17;4.50;;;1.75;;
10550;SDS011;5324;50.684;3.862;2023-08-21T00:20:43;3.03;;;1.88;;
10550;SDS011;5324;50.684;3.862;2023-08-21T00:23:09;4.15;;;1.90;;
10550;SDS011;5324;50.684;3.862;2023-08-21T00:25:35;6.45;;;2.13;;
10550;SDS011;5324;50.684;3.862;2023-08-21T00:28:01;4.97;;;1.67;;
10550;SDS011;5324;50.684;3.862;2023-08-21T00:30:27;6.82;;;1.70;;
10550;SDS011;5324;50.684;3.862;2023-08-21T00:32:53;1.98;;;1.42;;
10550;SDS011;5324;50.684;3.862;2023-08-21T00:35:19;2.97;;;1.50;;
10550;SDS011;5324;50.684;3.862;2023-08-21T00:37:45;2.13;;;1.58;;
10550;SDS011;5324;50.684;3.862;2023-08-21T00:40:12;3.88;;;1.85;;
10550;SDS011;5324;50.684;3.862;2023-08-21T00:42:38;5.78;;;2.00;;
10550;SDS011;5324;50.684;3.862;2023-08-21T00:45:04;5.00;;;1.75;;
10550;SDS011;5324;50.684;3.862;2023-08-21T00:47:33;3.53;;;1.80;;
10550;SDS011;5324;50.684;3.862;2023-08-21T00:49:59;4.50;;;1.58;;
10550;SDS011;5324;50.684;3.862;2023-08-21T00:52:25;5.57;;;2.20;;
10550;SDS011;5324;50.684;3.862;2023-08-21T00:54:51;4.07;;;1.80;;
10550;SDS011;5324;50.684;3.862;2023-08-21T00:57:17;2.53;;;1.58;;
10550;SDS011;5324;50.684;3.862;2023-08-21T00:59:44;3.33;;;1.60;;
10550;SDS011;5324;50.684;3.862;2023-08-21T01:02:10;5.75;;;1.98;;
10550;SDS011;5324;50.684;3.862;2023-08-21T01:04:36;3.97;;;1.83;;
10550;SDS011;5324;50.684;3.862;2023-08-21T01:07:02;4.63;;;1.50;;
10550;SDS011;5324;50.684;3.862;2023-08-21T01:09:36;8.32;;;2.42;;
10550;SDS011;5324;50.684;3.862;2023-08-21T01:14:35;3.47;;;1.73;;
10550;SDS011;5324;50.684;3.862;2023-08-21T01:17:03;2.78;;;1.73;;
10550;SDS011;5324;50.684;3.862;2023-08-21T01:19:42;5.13;;;1.92;;
10550;SDS011;5324;50.684;3.862;2023-08-21T01:22:09;4.10;;;1.92;;
10550;SDS011;5324;50.684;3.862;2023-08-21T01:24:35;3.63;;;1.85;;
10550;SDS011;5324;50.684;3.862;2023-08-21T01:27:01;4.53;;;1.90;;
10550;SDS011;5324;50.684;3.862;2023-08-21T01:29:27;4.13;;;1.90;;
10550;SDS011;5324;50.684;3.862;2023-08-21T01:32:06;4.35;;;1.77;;
10550;SDS011;5324;50.684;3.862;2023-08-21T01:34:32;4.15;;;2.03;;
10550;SDS011;5324;50.684;3.862;2023-08-21T01:37:01;5.25;;;1.80;;
10550;SDS011;5324;50.684;3.862;2023-08-21T01:39:28;6.28;;;2.22;;
10550;SDS011;5324;50.684;3.862;2023-08-21T01:41:55;3.38;;;2.00;;
10550;SDS011;5324;50.684;3.862;2023-08-21T01:44:21;4.28;;;1.90;;
10550;SDS011;5324;50.684;3.862;2023-08-21T01:46:47;5.95;;;1.70;;
10550;SDS011;5324;50.684;3.862;2023-08-21T01:49:13;3.05;;;1.58;;
10550;SDS011;5324;50.684;3.862;2023-08-21T01:51:39;5.50;;;1.92;;
10550;SDS011;5324;50.684;3.862;2023-08-21T01:54:05;4.40;;;1.90;;
10550;SDS011;5324;50.684;3.862;2023-08-21T01:56:31;6.05;;;2.13;;
10550;SDS011;5324;50.684;3.862;2023-08-21T01:58:57;4.35;;;2.03;;
10550;SDS011;5324;50.684;3.862;2023-08-21T02:01:23;2.78;;;1.50;;
10550;SDS011;5324;50.684;3.862;2023-08-21T02:03:49;6.03;;;2.15;;
10550;SDS011;5324;50.684;3.862;2023-08-21T02:06:15;9.68;;;2.05;;
10550;SDS011;5324;50.684;3.862;2023-08-21T02:08:41;6.25;;;1.95;;
10550;SDS011;5324;50.684;3.862;2023-08-21T02:11:07;4.60;;;2.08;;
10550;SDS011;5324;50.684;3.862;2023-08-21T02:13:33;2.80;;;1.48;;
10550;SDS011;5324;50.684;3.862;2023-08-21T02:15:59;3.53;;;1.63;;
10550;SDS011;5324;50.684;3.862;2023-08-21T02:18:25;5.03;;;2.08;;
10550;SDS011;5324;50.684;3.862;2023-08-21T02:20:51;3.75;;;1.88;;
10550;SDS011;5324;50.684;3.862;2023-08-21T02:23:17;3.63;;;1.83;;
10550;SDS011;5324;50.684;3.862;2023-08-21T02:25:43;4.82;;;1.73;;
10550;SDS011;5324;50.684;3.862;2023-08-21T02:28:09;7.10;;;2.25;;
10550;SDS011;5324;50.684;3.862;2023-08-21T02:30:35;3.67;;;1.95;;
10550;SDS011;5324;50.684;3.862;2023-08-21T02:33:01;4.75;;;2.15;;
10550;SDS011;5324;50.684;3.862;2023-08-21T02:35:27;6.22;;;2.45;;
10550;SDS011;5324;50.684;3.862;2023-08-21T02:37:53;3.30;;;1.95;;
10550;SDS011;5324;50.684;3.862;2023-08-21T02:40:19;3.65;;;1.60;;
10550;SDS011;5324;50.684;3.862;2023-08-21T02:42:45;3.10;;;1.90;;
10550;SDS011;5324;50.684;3.862;2023-08-21T02:45:11;3.78;;;2.05;;
10550;SDS011;5324;50.684;3.862;2023-08-21T02:47:39;6.57;;;2.40;;
10550;SDS011;5324;50.684;3.862;2023-08-21T02:50:06;5.57;;;2.03;;
10550;SDS011;5324;50.684;3.862;2023-08-21T02:52:33;2.42;;;1.83;;
10550;SDS011;5324;50.684;3.862;2023-08-21T02:54:59;4.15;;;1.70;;
10550;SDS011;5324;50.684;3.862;2023-08-21T02:57:26;4.18;;;1.92;;
10550;SDS011;5324;50.684;3.862;2023-08-21T02:59:52;3.72;;;1.70;;
10550;SDS011;5324;50.684;3.862;2023-08-21T03:02:18;5.65;;;2.08;;
10550;SDS011;5324;50.684;3.862;2023-08-21T03:04:44;2.67;;;1.63;;
10550;SDS011;5324;50.684;3.862;2023-08-21T03:07:11;5.05;;;2.17;;
10550;SDS011;5324;50.684;3.862;2023-08-21T03:09:37;4.60;;;2.00;;
10550;SDS011;5324;50.684;3.862;2023-08-21T03:12:03;7.00;;;2.10;;
10550;SDS011;5324;50.684;3.862;2023-08-21T03:14:29;3.63;;;1.90;;
10550;SDS011;5324;50.684;3.862;2023-08-21T03:16:55;5.95;;;2.00;;
10550;SDS011;5324;50.684;3.862;2023-08-21T03:19:21;3.78;;;1.85;;
10550;SDS011;5324;50.684;3.862;2023-08-21T03:21:48;4.82;;;1.85;;
10550;SDS011;5324;50.684;3.862;2023-08-21T03:24:14;4.88;;;2.03;;
10550;SDS011;5324;50.684;3.862;2023-08-21T03:26:40;4.00;;;1.70;;
10550;SDS011;5324;50.684;3.862;2023-08-21T03:29:06;5.05;;;2.05;;
10550;SDS011;5324;50.684;3.862;2023-08-21T03:31:32;5.07;;;1.83;;
10550;SDS011;5324;50.684;3.862;2023-08-21T03:33:58;3.38;;;1.75;;
10550;SDS011;5324;50.684;3.862;2023-08-21T03:36:24;5.32;;;1.95;;
10550;SDS011;5324;50.684;3.862;2023-08-21T03:38:59;3.92;;;2.10;;
10550;SDS011;5324;50.684;3.862;2023-08-21T03:41:26;5.90;;;1.92;;
10550;SDS011;5324;50.684;3.862;2023-08-21T03:43:52;7.18;;;2.47;;
10550;SDS011;5324;50.684;3.862;2023-08-21T03:46:18;4.05;;;1.90;;
10550;SDS011;5324;50.684;3.862;2023-08-21T03:48:44;3.45;;;1.92;;
10550;SDS011;5324;50.684;3.862;2023-08-21T03:51:10;6.70;;;1.92;;
10550;SDS011;5324;50.684;3.862;2023-08-21T03:53:36;5.40;;;2.20;;
10550;SDS011;5324;50.684;3.862;2023-08-21T03:56:02;3.72;;;1.73;;
10550;SDS011;5324;50.684;3.862;2023-08-21T03:58:28;7.50;;;2.30;;
10550;SDS011;5324;50.684;3.862;2023-08-21T04:00:54;4.35;;;2.05;;
10550;SDS011;5324;50.684;3.862;2023-08-21T04:03:20;8.20;;;2.08;;
10550;SDS011;5324;50.684;3.862;2023-08-21T04:05:47;4.72;;;1.55;;
10550;SDS011;5324;50.684;3.862;2023-08-21T04:08:13;3.33;;;1.77;;
10550;SDS011;5324;50.684;3.862;2023-08-21T04:10:39;4.65;;;1.80;;
10550;SDS011;5324;50.684;3.862;2023-08-21T04:13:07;3.03;;;1.70;;
10550;SDS011;5324;50.684;3.862;2023-08-21T04:15:33;5.95;;;2.13;;
10550;SDS011;5324;50.684;3.862;2023-08-21T04:18:02;3.50;;;1.70;;
10550;SDS011;5324;50.684;3.862;2023-08-21T04:20:28;6.43;;;2.20;;
10550;SDS011;5324;50.684;3.862;2023-08-21T04:22:54;4.05;;;1.85;;
10550;SDS011;5324;50.684;3.862;2023-08-21T04:25:22;4.72;;;2.17;;
10550;SDS011;5324;50.684;3.862;2023-08-21T04:27:48;4.22;;;1.88;;
10550;SDS011;5324;50.684;3.862;2023-08-21T04:30:14;5.13;;;1.85;;
10550;SDS011;5324;50.684;3.862;2023-08-21T04:32:40;3.90;;;2.25;;
10550;SDS011;5324;50.684;3.862;2023-08-21T04:35:06;4.32;;;2.20;;
10550;SDS011;5324;50.684;3.862;2023-08-21T04:37:33;3.22;;;1.65;;
10550;SDS011;5324;50.684;3.862;2023-08-21T04:39:59;4.53;;;1.75;;
10550;SDS011;5324;50.684;3.862;2023-08-21T04:42:25;4.93;;;1.85;;
10550;SDS011;5324;50.684;3.862;2023-08-21T04:44:51;3.38;;;1.85;;
10550;SDS011;5324;50.684;3.862;2023-08-21T04:47:24;4.55;;;2.22;;
10550;SDS011;5324;50.684;3.862;2023-08-21T04:49:54;4.28;;;1.98;;
10550;SDS011;5324;50.684;3.862;2023-08-21T04:52:20;3.53;;;2.10;;
10550;SDS011;5324;50.684;3.862;2023-08-21T04:54:47;4.65;;;2.17;;
10550;SDS011;5324;50.684;3.862;2023-08-21T04:57:13;3.13;;;1.88;;
10550;SDS011;5324;50.684;3.862;2023-08-21T04:59:39;3.80;;;1.67;;
10550;SDS011;5324;50.684;3.862;2023-08-21T05:02:05;4.13;;;1.38;;
10550;SDS011;5324;50.684;3.862;2023-08-21T05:04:31;3.85;;;1.88;;
10550;SDS011;5324;50.684;3.862;2023-08-21T05:06:58;3.90;;;1.90;;
10550;SDS011;5324;50.684;3.862;2023-08-21T05:09:24;2.38;;;1.63;;
10550;SDS011;5324;50.684;3.862;2023-08-21T05:11:50;9.02;;;1.95;;
10550;SDS011;5324;50.684;3.862;2023-08-21T05:14:16;3.97;;;1.63;;
10550;SDS011;5324;50.684;3.862;2023-08-21T05:16:44;2.47;;;1.38;;
10550;SDS011;5324;50.684;3.862;2023-08-21T05:19:10;4.95;;;1.75;;
10550;SDS011;5324;50.684;3.862;2023-08-21T05:21:36;4.40;;;1.90;;
10550;SDS011;5324;50.684;3.862;2023-08-21T05:24:02;4.18;;;2.10;;
10550;SDS011;5324;50.684;3.862;2023-08-21T05:26:28;4.38;;;2.38;;
10550;SDS011;5324;50.684;3.862;2023-08-21T05:28:56;4.18;;;2.20;;
10550;SDS011;5324;50.684;3.862;2023-08-21T05:31:22;5.93;;;1.90;;
10550;SDS011;5324;50.684;3.862;2023-08-21T05:33:48;7.05;;;1.92;;
10550;SDS011;5324;50.684;3.862;2023-08-21T05:36:14;4.80;;;1.98;;
10550;SDS011;5324;50.684;3.862;2023-08-21T05:38:40;2.33;;;1.92;;
10550;SDS011;5324;50.684;3.862;2023-08-21T05:41:06;3.42;;;2.10;;
10550;SDS011;5324;50.684;3.862;2023-08-21T05:43:33;3.72;;;1.83;;
10550;SDS011;5324;50.684;3.862;2023-08-21T05:45:59;6.28;;;2.80;;
10550;SDS011;5324;50.684;3.862;2023-08-21T05:48:25;4.68;;;2.28;;
10550;SDS011;5324;50.684;3.862;2023-08-21T05:50:52;7.05;;;2.33;;
10550;SDS011;5324;50.684;3.862;2023-08-21T05:53:18;4.32;;;2.15;;
10550;SDS011;5324;50.684;3.862;2023-08-21T05:55:44;6.07;;;2.30;;
10550;SDS011;5324;50.684;3.862;2023-08-21T05:58:10;11.18;;;3.25;;
10550;SDS011;5324;50.684;3.862;2023-08-21T06:00:38;7.22;;;3.00;;
10550;SDS011;5324;50.684;3.862;2023-08-21T06:03:04;8.27;;;2.78;;
10550;SDS011;5324;50.684;3.862;2023-08-21T06:05:30;6.15;;;2.42;;
10550;SDS011;5324;50.684;3.862;2023-08-21T06:07:56;4.07;;;2.45;;
10550;SDS011;5324;50.684;3.862;2023-08-21T06:10:22;4.55;;;2.13;;
10550;SDS011;5324;50.684;3.862;2023-08-21T06:12:48;9.23;;;3.60;;
10550;SDS011;5324;50.684;3.862;2023-08-21T06:15:16;6.97;;;2.72;;
10550;SDS011;5324;50.684;3.862;2023-08-21T06:17:42;7.28;;;2.80;;
10550;SDS011;5324;50.684;3.862;2023-08-21T06:20:08;7.03;;;3.03;;
10550;SDS011;5324;50.684;3.862;2023-08-21T06:22:34;5.57;;;2.58;;
10550;SDS011;5324;50.684;3.862;2023-08-21T06:25:01;5.15;;;3.13;;
10550;SDS011;5324;50.684;3.862;2023-08-21T06:27:27;6.03;;;2.92;;
10550;SDS011;5324;50.684;3.862;2023-08-21T06:29:53;3.97;;;2.60;;
10550;SDS011;5324;50.684;3.862;2023-08-21T06:32:19;5.55;;;2.97;;
10550;SDS011;5324;50.684;3.862;2023-08-21T06:34:45;6.05;;;2.75;;
10550;SDS011;5324;50.684;3.862;2023-08-21T06:37:11;5.35;;;2.90;;
10550;SDS011;5324;50.684;3.862;2023-08-21T06:39:40;6.60;;;3.42;;
10550;SDS011;5324;50.684;3.862;2023-08-21T06:42:06;6.03;;;3.40;;
10550;SDS011;5324;50.684;3.862;2023-08-21T06:44:32;4.95;;;2.95;;
10550;SDS011;5324;50.684;3.862;2023-08-21T06:46:58;4.95;;;3.03;;
10550;SDS011;5324;50.684;3.862;2023-08-21T06:49:24;4.95;;;3.67;;
10550;SDS011;5324;50.684;3.862;2023-08-21T06:51:50;6.72;;;3.00;;
10550;SDS011;5324;50.684;3.862;2023-08-21T06:54:16;7.30;;;3.55;;
10550;SDS011;5324;50.684;3.862;2023-08-21T06:56:43;4.85;;;2.75;;
10550;SDS011;5324;50.684;3.862;2023-08-21T06:59:09;6.82;;;3.55;;
10550;SDS011;5324;50.684;3.862;2023-08-21T07:01:35;9.43;;;4.15;;
10550;SDS011;5324;50.684;3.862;2023-08-21T07:04:01;7.10;;;3.47;;
10550;SDS011;5324;50.684;3.862;2023-08-21T07:06:27;7.57;;;4.50;;
10550;SDS011;5324;50.684;3.862;2023-08-21T07:08:54;5.47;;;3.47;;
10550;SDS011;5324;50.684;3.862;2023-08-21T07:11:20;6.35;;;3.17;;
10550;SDS011;5324;50.684;3.862;2023-08-21T07:13:46;10.15;;;4.78;;
10550;SDS011;5324;50.684;3.862;2023-08-21T07:16:13;8.88;;;4.65;;
10550;SDS011;5324;50.684;3.862;2023-08-21T07:18:39;8.57;;;3.88;;
10550;SDS011;5324;50.684;3.862;2023-08-21T07:21:05;9.15;;;4.72;;
10550;SDS011;5324;50.684;3.862;2023-08-21T07:23:31;11.90;;;3.78;;
10550;SDS011;5324;50.684;3.862;2023-08-21T07:25:59;6.70;;;4.43;;
10550;SDS011;5324;50.684;3.862;2023-08-21T07:28:25;6.60;;;4.03;;
10550;SDS011;5324;50.684;3.862;2023-08-21T07:30:57;8.40;;;4.40;;
10550;SDS011;5324;50.684;3.862;2023-08-21T07:33:24;7.63;;;4.38;;
10550;SDS011;5324;50.684;3.862;2023-08-21T07:35:57;7.15;;;3.70;;
10550;SDS011;5324;50.684;3.862;2023-08-21T07:38:23;11.30;;;4.82;;
10550;SDS011;5324;50.684;3.862;2023-08-21T07:40:49;10.15;;;5.43;;
10550;SDS011;5324;50.684;3.862;2023-08-21T07:43:15;8.30;;;4.25;;
10550;SDS011;5324;50.684;3.862;2023-08-21T07:45:41;9.07;;;4.90;;
10550;SDS011;5324;50.684;3.862;2023-08-21T07:48:07;8.60;;;5.53;;
10550;SDS011;5324;50.684;3.862;2023-08-21T07:50:34;8.30;;;4.18;;
10550;SDS011;5324;50.684;3.862;2023-08-21T07:53:00;5.88;;;3.60;;
10550;SDS011;5324;50.684;3.862;2023-08-21T07:55:26;7.40;;;4.47;;
10550;SDS011;5324;50.684;3.862;2023-08-21T07:57:52;6.03;;;4.10;;
10550;SDS011;5324;50.684;3.862;2023-08-21T08:00:18;6.80;;;3.95;;
10550;SDS011;5324;50.684;3.862;2023-08-21T08:02:44;9.32;;;4.30;;
10550;SDS011;5324;50.684;3.862;2023-08-21T08:05:10;10.82;;;5.32;;
10550;SDS011;5324;50.684;3.862;2023-08-21T08:07:36;10.63;;;5.63;;
10550;SDS011;5324;50.684;3.862;2023-08-21T08:10:02;8.27;;;5.00;;
10550;SDS011;5324;50.684;3.862;2023-08-21T08:12:28;4.20;;;3.03;;
10550;SDS011;5324;50.684;3.862;2023-08-21T08:14:54;8.65;;;4.65;;
10550;SDS011;5324;50.684;3.862;2023-08-21T08:17:20;6.72;;;4.05;;
10550;SDS011;5324;50.684;3.862;2023-08-21T08:19:46;9.88;;;4.72;;
10550;SDS011;5324;50.684;3.862;2023-08-21T08:22:12;6.75;;;4.13;;
10550;SDS011;5324;50.684;3.862;2023-08-21T08:24:38;8.52;;;3.80;;
10550;SDS011;5324;50.684;3.862;2023-08-21T08:27:04;10.07;;;4.97;;
10550;SDS011;5324;50.684;3.862;2023-08-21T08:29:33;9.88;;;5.38;;
10550;SDS011;5324;50.684;3.862;2023-08-21T08:31:59;11.23;;;5.28;;
10550;SDS011;5324;50.684;3.862;2023-08-21T08:34:25;9.90;;;3.20;;
10550;SDS011;5324;50.684;3.862;2023-08-21T08:36:51;7.25;;;3.38;;
10550;SDS011;5324;50.684;3.862;2023-08-21T08:39:17;9.50;;;4.20;;
10550;SDS011;5324;50.684;3.862;2023-08-21T08:41:58;9.65;;;5.45;;
10550;SDS011;5324;50.684;3.862;2023-08-21T08:44:26;8.38;;;3.63;;
10550;SDS011;5324;50.684;3.862;2023-08-21T08:46:53;11.52;;;5.60;;
10550;SDS011;5324;50.684;3.862;2023-08-21T08:49:19;6.88;;;4.93;;
10550;SDS011;5324;50.684;3.862;2023-08-21T08:51:46;8.95;;;4.20;;
10550;SDS011;5324;50.684;3.862;2023-08-21T08:54:14;13.52;;;5.78;;
10550;SDS011;5324;50.684;3.862;2023-08-21T08:56:42;10.55;;;5.43;;
10550;SDS011;5324;50.684;3.862;2023-08-21T08:59:08;12.52;;;5.45;;
10550;SDS011;5324;50.684;3.862;2023-08-21T09:01:34;8.43;;;4.40;;
10550;SDS011;5324;50.684;3.862;2023-08-21T09:04:00;6.55;;;3.85;;
10550;SDS011;5324;50.684;3.862;2023-08-21T09:06:26;6.80;;;4.05;;
10550;SDS011;5324;50.684;3.862;2023-08-21T09:08:56;6.90;;;3.90;;
10550;SDS011;5324;50.684;3.862;2023-08-21T09:11:23;7.00;;;3.58;;
10550;SDS011;5324;50.684;3.862;2023-08-21T09:13:49;9.30;;;5.13;;
10550;SDS011;5324;50.684;3.862;2023-08-21T09:16:16;8.02;;;4.65;;
10550;SDS011;5324;50.684;3.862;2023-08-21T09:18:49;7.72;;;4.72;;
10550;SDS011;5324;50.684;3.862;2023-08-21T09:21:16;11.50;;;5.20;;
10550;SDS011;5324;50.684;3.862;2023-08-21T09:23:42;8.85;;;4.63;;
10550;SDS011;5324;50.684;3.862;2023-08-21T09:26:09;9.10;;;5.32;;
10550;SDS011;5324;50.684;3.862;2023-08-21T09:28:35;7.15;;;5.03;;
10550;SDS011;5324;50.684;3.862;2023-08-21T09:31:01;8.00;;;4.03;;
10550;SDS011;5324;50.684;3.862;2023-08-21T09:33:28;5.13;;;3.10;;
10550;SDS011;5324;50.684;3.862;2023-08-21T09:35:54;9.30;;;4.68;;
10550;SDS011;5324;50.684;3.862;2023-08-21T09:38:20;6.28;;;3.72;;
10550;SDS011;5324;50.684;3.862;2023-08-21T09:40:50;9.35;;;4.35;;
10550;SDS011;5324;50.684;3.862;2023-08-21T09:43:17;5.00;;;3.33;;
10550;SDS011;5324;50.684;3.862;2023-08-21T09:45:46;6.30;;;3.20;;
10550;SDS011;5324;50.684;3.862;2023-08-21T09:48:13;8.15;;;3.30;;
10550;SDS011;5324;50.684;3.862;2023-08-21T09:50:39;5.35;;;2.72;;
10550;SDS011;5324;50.684;3.862;2023-08-21T09:53:08;4.78;;;2.80;;
10550;SDS011;5324;50.684;3.862;2023-08-21T09:55:34;3.13;;;2.47;;
10550;SDS011;5324;50.684;3.862;2023-08-21T09:58:01;5.90;;;2.63;;
10550;SDS011;5324;50.684;3.862;2023-08-21T10:00:31;3.67;;;1.92;;
10550;SDS011;5324;50.684;3.862;2023-08-21T10:03:02;4.20;;;2.40;;
10550;SDS011;5324;50.684;3.862;2023-08-21T10:05:31;6.97;;;2.83;;
10550;SDS011;5324;50.684;3.862;2023-08-21T10:07:59;5.22;;;2.42;;
10550;SDS011;5324;50.684;3.862;2023-08-21T10:10:27;3.28;;;2.38;;
10550;SDS011;5324;50.684;3.862;2023-08-21T10:12:54;3.83;;;2.40;;
10550;SDS011;5324;50.684;3.862;2023-08-21T10:15:20;5.10;;;2.00;;
10550;SDS011;5324;50.684;3.862;2023-08-21T10:17:47;3.92;;;2.83;;
10550;SDS011;5324;50.684;3.862;2023-08-21T10:20:15;3.35;;;2.55;;
10550;SDS011;5324;50.684;3.862;2023-08-21T10:22:52;5.70;;;2.97;;
10550;SDS011;5324;50.684;3.862;2023-08-21T10:25:22;6.05;;;2.80;;
10550;SDS011;5324;50.684;3.862;2023-08-21T10:27:57;4.07;;;2.80;;
10550;SDS011;5324;50.684;3.862;2023-08-21T10:30:26;2.92;;;2.13;;
10550;SDS011;5324;50.684;3.862;2023-08-21T10:33:01;5.00;;;2.78;;
10550;SDS011;5324;50.684;3.862;2023-08-21T10:35:28;4.18;;;2.70;;
10550;SDS011;5324;50.684;3.862;2023-08-21T10:40:34;5.53;;;2.50;;
10550;SDS011;5324;50.684;3.862;2023-08-21T10:43:00;3.67;;;2.40;;
10550;SDS011;5324;50.684;3.862;2023-08-21T10:45:27;3.55;;;2.10;;
10550;SDS011;5324;50.684;3.862;2023-08-21T10:47:56;2.33;;;2.03;;
10550;SDS011;5324;50.684;3.862;2023-08-21T10:50:23;3.97;;;1.88;;
10550;SDS011;5324;50.684;3.862;2023-08-21T10:52:51;4.10;;;2.25;;
10550;SDS011;5324;50.684;3.862;2023-08-21T10:55:17;2.83;;;2.05;;
10550;SDS011;5324;50.684;3.862;2023-08-21T10:57:45;3.95;;;2.08;;
10550;SDS011;5324;50.684;3.862;2023-08-21T11:00:12;4.03;;;2.30;;
10550;SDS011;5324;50.684;3.862;2023-08-21T11:02:43;3.30;;;2.22;;
10550;SDS011;5324;50.684;3.862;2023-08-21T11:05:10;6.65;;;2.20;;
10550;SDS011;5324;50.684;3.862;2023-08-21T11:07:37;3.25;;;2.05;;
10550;SDS011;5324;50.684;3.862;2023-08-21T11:10:04;3.83;;;2.50;;
10550;SDS011;5324;50.684;3.862;2023-08-21T11:12:32;3.22;;;2.40;;
10550;SDS011;5324;50.684;3.862;2023-08-21T11:14:58;5.38;;;2.50;;
10550;SDS011;5324;50.684;3.862;2023-08-21T11:17:24;2.80;;;2.25;;
10550;SDS011;5324;50.684;3.862;2023-08-21T11:19:50;3.58;;;2.47;;
10550;SDS011;5324;50.684;3.862;2023-08-21T11:22:17;4.05;;;2.72;;
10550;SDS011;5324;50.684;3.862;2023-08-21T11:24:44;4.50;;;2.42;;
10550;SDS011;5324;50.684;3.862;2023-08-21T11:27:11;3.28;;;2.30;;
10550;SDS011;5324;50.684;3.862;2023-08-21T11:29:43;2.67;;;1.80;;
10550;SDS011;5324;50.684;3.862;2023-08-21T11:34:35;2.75;;;1.77;;
10550;SDS011;5324;50.684;3.862;2023-08-21T11:37:02;3.35;;;1.95;;
10550;SDS011;5324;50.684;3.862;2023-08-21T11:39:38;4.32;;;1.90;;
10550;SDS011;5324;50.684;3.862;2023-08-21T11:42:08;3.05;;;2.20;;
10550;SDS011;5324;50.684;3.862;2023-08-21T11:44:39;3.85;;;2.42;;
10550;SDS011;5324;50.684;3.862;2023-08-21T11:47:06;5.72;;;2.25;;
10550;SDS011;5324;50.684;3.862;2023-08-21T11:49:32;2.75;;;1.95;;
10550;SDS011;5324;50.684;3.862;2023-08-21T11:51:58;2.75;;;2.28;;
10550;SDS011;5324;50.684;3.862;2023-08-21T11:54:24;4.47;;;2.30;;
10550;SDS011;5324;50.684;3.862;2023-08-21T11:56:50;4.13;;;2.58;;
10550;SDS011;5324;50.684;3.862;2023-08-21T11:59:22;3.50;;;2.33;;
10550;SDS011;5324;50.684;3.862;2023-08-21T12:01:51;3.13;;;2.13;;
10550;SDS011;5324;50.684;3.862;2023-08-21T12:04:17;5.45;;;2.65;;
10550;SDS011;5324;50.684;3.862;2023-08-21T12:06:44;6.78;;;2.30;;
10550;SDS011;5324;50.684;3.862;2023-08-21T12:09:10;3.97;;;2.47;;
10550;SDS011;5324;50.684;3.862;2023-08-21T12:11:36;4.88;;;2.55;;
10550;SDS011;5324;50.684;3.862;2023-08-21T12:14:03;7.82;;;3.42;;
10550;SDS011;5324;50.684;3.862;2023-08-21T12:16:29;4.35;;;2.35;;
10550;SDS011;5324;50.684;3.862;2023-08-21T12:18:55;4.45;;;2.85;;
10550;SDS011;5324;50.684;3.862;2023-08-21T12:21:23;4.03;;;2.63;;
10550;SDS011;5324;50.684;3.862;2023-08-21T12:23:49;5.15;;;2.90;;
10550;SDS011;5324;50.684;3.862;2023-08-21T12:26:15;3.28;;;2.50;;
10550;SDS011;5324;50.684;3.862;2023-08-21T12:28:46;2.63;;;2.35;;
10550;SDS011;5324;50.684;3.862;2023-08-21T12:31:12;4.20;;;2.63;;
10550;SDS011;5324;50.684;3.862;2023-08-21T12:33:38;4.75;;;2.90;;
10550;SDS011;5324;50.684;3.862;2023-08-21T12:36:04;5.53;;;3.53;;
10550;SDS011;5324;50.684;3.862;2023-08-21T12:38:30;4.25;;;2.20;;
10550;SDS011;5324;50.684;3.862;2023-08-21T12:40:57;3.40;;;2.72;;
10550;SDS011;5324;50.684;3.862;2023-08-21T12:43:23;2.78;;;2.47;;
10550;SDS011;5324;50.684;3.862;2023-08-21T12:45:50;5.03;;;2.83;;
10550;SDS011;5324;50.684;3.862;2023-08-21T12:48:16;3.50;;;2.63;;
10550;SDS011;5324;50.684;3.862;2023-08-21T12:50:42;3.67;;;2.90;;
10550;SDS011;5324;50.684;3.862;2023-08-21T12:53:08;4.28;;;2.78;;
10550;SDS011;5324;50.684;3.862;2023-08-21T12:55:34;4.40;;;2.83;;
10550;SDS011;5324;50.684;3.862;2023-08-21T12:58:01;2.78;;;2.40;;
10550;SDS011;5324;50.684;3.862;2023-08-21T13:00:27;4.47;;;2.88;;
10550;SDS011;5324;50.684;3.862;2023-08-21T13:02:53;2.45;;;2.25;;
10550;SDS011;5324;50.684;3.862;2023-08-21T13:05:19;3.13;;;2.35;;
10550;SDS011;5324;50.684;3.862;2023-08-21T13:07:45;3.00;;;2.40;;
10550;SDS011;5324;50.684;3.862;2023-08-21T13:10:11;2.58;;;2.38;;
10550;SDS011;5324;50.684;3.862;2023-08-21T13:12:37;4.07;;;3.00;;
10550;SDS011;5324;50.684;3.862;2023-08-21T13:15:03;3.80;;;2.92;;
10550;SDS011;5324;50.684;3.862;2023-08-21T13:17:32;4.40;;;2.80;;
10550;SDS011;5324;50.684;3.862;2023-08-21T13:19:58;3.28;;;2.83;;
10550;SDS011;5324;50.684;3.862;2023-08-21T13:22:24;4.05;;;3.00;;
10550;SDS011;5324;50.684;3.862;2023-08-21T13:24:50;4.15;;;3.47;;
10550;SDS011;5324;50.684;3.862;2023-08-21T13:27:16;5.53;;;3.47;;
10550;SDS011;5324;50.684;3.862;2023-08-21T13:29:42;4.03;;;3.17;;
10550;SDS011;5324;50.684;3.862;2023-08-21T13:32:09;4.22;;;3.35;;
10550;SDS011;5324;50.684;3.862;2023-08-21T13:34:35;7.13;;;3.95;;
10550;SDS011;5324;50.684;3.862;2023-08-21T13:37:01;4.55;;;3.53;;
10550;SDS011;5324;50.684;3.862;2023-08-21T13:39:29;5.00;;;3.42;;
10550;SDS011;5324;50.684;3.862;2023-08-21T13:41:55;6.32;;;4.03;;
10550;SDS011;5324;50.684;3.862;2023-08-21T13:44:21;9.75;;;3.75;;
10550;SDS011;5324;50.684;3.862;2023-08-21T13:46:47;5.65;;;3.38;;
10550;SDS011;5324;50.684;3.862;2023-08-21T13:49:13;6.07;;;4.25;;
10550;SDS011;5324;50.684;3.862;2023-08-21T13:51:40;3.33;;;2.92;;
10550;SDS011;5324;50.684;3.862;2023-08-21T13:54:07;3.22;;;2.80;;
10550;SDS011;5324;50.684;3.862;2023-08-21T13:56:33;4.65;;;3.20;;
10550;SDS011;5324;50.684;3.862;2023-08-21T13:58:59;4.03;;;3.10;;
10550;SDS011;5324;50.684;3.862;2023-08-21T14:01:25;3.13;;;2.83;;
10550;SDS011;5324;50.684;3.862;2023-08-21T14:03:51;3.67;;;3.13;;
10550;SDS011;5324;50.684;3.862;2023-08-21T14:06:17;4.95;;;3.10;;
10550;SDS011;5324;50.684;3.862;2023-08-21T14:08:43;3.80;;;2.85;;
10550;SDS011;5324;50.684;3.862;2023-08-21T14:11:09;4.18;;;2.60;;
10550;SDS011;5324;50.684;3.862;2023-08-21T14:13:36;4.63;;;2.88;;
10550;SDS011;5324;50.684;3.862;2023-08-21T14:16:02;3.10;;;2.80;;
10550;SDS011;5324;50.684;3.862;2023-08-21T14:18:29;4.10;;;2.83;;
10550;SDS011;5324;50.684;3.862;2023-08-21T14:20:58;2.65;;;2.28;;
10550;SDS011;5324;50.684;3.862;2023-08-21T14:23:24;2.80;;;2.60;;
10550;SDS011;5324;50.684;3.862;2023-08-21T14:25:50;3.92;;;2.60;;
10550;SDS011;5324;50.684;3.862;2023-08-21T14:28:17;3.65;;;2.20;;
10550;SDS011;5324;50.684;3.862;2023-08-21T14:30:43;4.22;;;2.92;;
10550;SDS011;5324;50.684;3.862;2023-08-21T14:33:10;6.18;;;3.42;;
10550;SDS011;5324;50.684;3.862;2023-08-21T14:35:36;4.10;;;3.28;;
10550;SDS011;5324;50.684;3.862;2023-08-21T14:38:02;4.20;;;3.03;;
10550;SDS011;5324;50.684;3.862;2023-08-21T14:40:29;5.43;;;3.55;;
10550;SDS011;5324;50.684;3.862;2023-08-21T14:42:55;5.32;;;3.33;;
10550;SDS011;5324;50.684;3.862;2023-08-21T14:45:21;3.45;;;3.13;;
10550;SDS011;5324;50.684;3.862;2023-08-21T14:47:47;3.95;;;3.17;;
10550;SDS011;5324;50.684;3.862;2023-08-21T14:50:13;4.85;;;3.70;;
10550;SDS011;5324;50.684;3.862;2023-08-21T14:52:39;4.40;;;3.10;;
10550;SDS011;5324;50.684;3.862;2023-08-21T14:55:05;3.38;;;3.08;;
10550;SDS011;5324;50.684;3.862;2023-08-21T14:57:31;3.83;;;3.53;;
10550;SDS011;5324;50.684;3.862;2023-08-21T14:59:59;3.00;;;2.70;;
10550;SDS011;5324;50.684;3.862;2023-08-21T15:02:25;3.90;;;2.95;;
10550;SDS011;5324;50.684;3.862;2023-08-21T15:04:51;4.20;;;3.25;;